createdAt,value
2018-09-19T00:07:57.562Z,1004.7
2018-09-19T00:17:57.797Z,1004.8
2018-09-19T00:27:58.060Z,1004.8
2018-09-19T00:37:58.637Z,1004.9
2018-09-19T00:47:59.049Z,1005
2018-09-19T01:08:02.377Z,1005
2018-09-19T01:18:02.795Z,1005
2018-09-19T01:28:02.722Z,1005.2
2018-09-19T01:38:02.837Z,1005.3
2018-09-19T01:48:03.157Z,1005.3
2018-09-19T01:58:03.611Z,1005.4
2018-09-19T02:08:04.168Z,1005.5
2018-09-19T02:18:04.427Z,1005.6
2018-09-19T02:28:05.320Z,1005.6
2018-09-19T02:38:05.969Z,1005.8
2018-09-19T02:48:06.444Z,1005.7
2018-09-19T02:58:08.179Z,1005.8
2018-09-19T03:08:08.653Z,1005.9
2018-09-19T03:18:08.946Z,1005.8
2018-09-19T03:28:09.389Z,1005.8
2018-09-19T03:38:09.699Z,1005.8
2018-09-19T03:58:12.963Z,1005.8
2018-09-19T04:08:13.105Z,1005.8
2018-09-19T04:18:13.362Z,1005.9
2018-09-19T04:28:13.795Z,1005.9
2018-09-19T04:48:17.134Z,1006
2018-09-19T04:58:17.978Z,1006
2018-09-19T05:28:24.109Z,1006.2
2018-09-19T05:48:26.987Z,1006.2
2018-09-19T06:18:34.619Z,1006.3
2018-09-19T06:28:34.854Z,1006.4
2018-09-19T06:38:35.330Z,1006.3
2018-09-19T06:48:36.001Z,1006.1
2018-09-19T06:58:36.646Z,1006.1
2018-09-19T07:08:37.475Z,1006
2018-09-19T07:18:38.116Z,1005.9
2018-09-19T07:28:38.504Z,1006
2018-09-19T07:38:39.000Z,1005.9
2018-09-19T07:48:39.221Z,1005.8
2018-09-19T07:58:39.728Z,1006
2018-09-19T08:08:40.204Z,1005.9
2018-09-19T08:18:42.232Z,1006.1
2018-09-19T08:28:44.061Z,1006
2018-09-19T08:38:46.789Z,1006.2
2018-09-19T08:48:46.982Z,1006.2
2018-09-19T08:58:47.331Z,1006
2018-09-19T09:08:47.776Z,1006
2018-09-19T09:18:48.262Z,1005.9
2018-09-19T09:38:51.950Z,1005.8
2018-09-19T09:48:52.204Z,1005.6
2018-09-19T09:58:52.711Z,1005.4
2018-09-19T10:08:53.181Z,1005.4
2018-09-19T10:28:54.149Z,1005.3
2018-09-19T10:38:54.505Z,1005.3
2018-09-19T10:48:55.078Z,1005.1
2018-09-19T10:58:55.657Z,1004.7
2018-09-19T11:08:58.650Z,1004.7
2018-09-19T11:18:59.235Z,1004.6
2018-09-19T11:28:59.756Z,1004.6
2018-09-19T11:39:00.307Z,1004.5
2018-09-19T11:49:00.672Z,1004.5
2018-09-19T11:59:03.686Z,1004.5
2018-09-19T12:09:04.083Z,1004.5
2018-09-19T12:19:04.772Z,1004.6
2018-09-19T12:29:05.640Z,1004.6
2018-09-19T12:39:05.951Z,1004.5
2018-09-19T12:49:06.330Z,1004.4
2018-09-19T12:59:06.733Z,1004.5
2018-09-19T13:09:07.108Z,1004.3
2018-09-19T13:19:07.395Z,1004.3
2018-09-19T13:39:10.927Z,1004.1
2018-09-19T13:49:11.208Z,1004.1
2018-09-19T14:09:14.061Z,1004
2018-09-19T14:19:14.202Z,1003.8
2018-09-19T14:29:14.808Z,1003.8
2018-09-19T14:39:15.153Z,1003.7
2018-09-19T14:49:16.593Z,1003.5
2018-09-19T14:59:16.914Z,1003.4
2018-09-19T15:09:17.057Z,1003.4
2018-09-19T15:19:17.469Z,1003.4
2018-09-19T15:29:17.791Z,1003.4
2018-09-19T15:39:18.297Z,1003.4
2018-09-19T15:49:21.276Z,1003.4
2018-09-19T15:59:21.688Z,1003.3
2018-09-19T16:09:21.922Z,1003.4
2018-09-19T16:19:21.891Z,1003.4
2018-09-19T16:29:22.073Z,1003.6
2018-09-19T16:39:22.290Z,1003.6
2018-09-19T16:49:22.670Z,1003.6
2018-09-19T16:59:24.688Z,1003.6
2018-09-19T17:09:25.077Z,1003.7
2018-09-19T17:19:25.721Z,1003.8
2018-09-19T17:29:25.956Z,1003.9
2018-09-19T17:39:26.872Z,1004
2018-09-19T17:49:27.068Z,1004.1
2018-09-19T17:59:27.376Z,1004.2
2018-09-19T18:09:27.782Z,1004.2
2018-09-19T18:19:28.112Z,1004.3
2018-09-19T18:29:28.326Z,1004.4
2018-09-19T18:39:28.697Z,1004.5
2018-09-19T18:49:28.996Z,1004.6
2018-09-19T18:59:30.049Z,1004.7
2018-09-19T19:09:30.345Z,1004.8
2018-09-19T19:19:30.486Z,1005
2018-09-19T19:29:30.729Z,1005.2
2018-09-19T19:39:31.345Z,1005.3
2018-09-19T19:59:36.906Z,1005.5
2018-09-19T20:19:40.395Z,1005.7
2018-09-19T20:29:40.255Z,1005.8
2018-09-19T20:39:40.456Z,1005.8
2018-09-19T20:49:40.613Z,1006
2018-09-19T20:59:40.702Z,1006.1
2018-09-19T21:09:41.021Z,1006.2
2018-09-19T21:19:43.905Z,1006.2
2018-09-19T21:29:44.234Z,1006.3
2018-09-19T21:39:44.553Z,1006.3
2018-09-19T21:49:44.706Z,1006.4
2018-09-19T21:59:44.968Z,1006.5
2018-09-19T22:09:45.492Z,1006.4
2018-09-19T22:29:48.638Z,1006.5
2018-09-19T22:49:51.501Z,1006.4
2018-09-19T22:59:51.928Z,1006.5
2018-09-19T23:09:52.313Z,1006.4
2018-09-19T23:19:53.688Z,1006.3
2018-09-19T23:29:54.177Z,1006.4
2018-09-19T23:39:54.531Z,1006.3
2018-09-19T23:49:54.776Z,1006.3
2018-09-19T23:59:54.945Z,1006.3
